createdAt,value
2022-10-29T00:00:57.385Z,9.60
2022-10-29T00:01:57.449Z,9.40
2022-10-29T00:02:57.416Z,9.70
2022-10-29T00:03:57.341Z,9.70
2022-10-29T00:04:57.333Z,10.70
2022-10-29T00:05:57.314Z,10.30
2022-10-29T00:06:57.331Z,10.00
2022-10-29T00:07:57.673Z,10.20
2022-10-29T00:08:57.291Z,11.20
2022-10-29T00:09:57.269Z,10.00
2022-10-29T00:10:57.263Z,10.30
2022-10-29T00:11:57.255Z,10.80
2022-10-29T00:12:57.236Z,10.00
2022-10-29T00:13:57.225Z,10.40
2022-10-29T00:14:57.215Z,10.60
2022-10-29T00:15:57.203Z,10.60
2022-10-29T00:16:57.314Z,10.90
2022-10-29T00:17:57.588Z,9.90
2022-10-29T00:18:57.167Z,9.90
2022-10-29T00:19:57.271Z,10.00
2022-10-29T00:20:57.152Z,9.30
2022-10-29T00:21:57.138Z,10.30
2022-10-29T00:22:57.590Z,10.30
2022-10-29T00:23:57.113Z,10.10
2022-10-29T00:24:57.103Z,10.80
2022-10-29T00:25:57.092Z,10.30
2022-10-29T00:26:57.080Z,10.70
2022-10-29T00:27:57.071Z,10.70
2022-10-29T00:28:57.060Z,10.60
2022-10-29T00:29:57.046Z,11.00
2022-10-29T00:30:57.039Z,11.30
2022-10-29T00:31:57.122Z,10.70
2022-10-29T00:32:57.192Z,11.10
2022-10-29T00:33:57.000Z,10.50
2022-10-29T00:34:56.992Z,10.90
2022-10-29T00:35:56.984Z,10.40
2022-10-29T00:36:56.970Z,11.30
2022-10-29T00:37:57.387Z,10.30
2022-10-29T00:38:56.985Z,10.10
2022-10-29T00:39:56.939Z,11.20
2022-10-29T00:40:56.924Z,11.00
2022-10-29T00:41:56.911Z,10.40
2022-10-29T00:42:56.902Z,12.00
2022-10-29T00:43:56.887Z,11.20
2022-10-29T00:44:56.882Z,11.60
2022-10-29T00:45:56.866Z,11.00
2022-10-29T00:46:56.857Z,10.70
2022-10-29T00:47:57.208Z,11.30
2022-10-29T00:48:56.836Z,10.30
2022-10-29T00:49:56.823Z,10.60
2022-10-29T00:50:56.814Z,10.40
2022-10-29T00:51:56.801Z,10.70
2022-10-29T00:52:56.793Z,10.20
2022-10-29T00:53:56.779Z,9.80
2022-10-29T00:54:56.793Z,9.80
2022-10-29T00:55:56.758Z,10.30
2022-10-29T00:56:56.748Z,10.00
2022-10-29T00:57:57.081Z,9.80
2022-10-29T00:58:56.728Z,9.80
2022-10-29T00:59:56.714Z,10.20
2022-10-29T01:00:56.706Z,10.30
2022-10-29T01:01:56.808Z,9.90
2022-10-29T01:02:57.144Z,10.80
2022-10-29T01:03:56.669Z,10.30
2022-10-29T01:04:56.657Z,10.90
2022-10-29T01:05:56.642Z,10.50
2022-10-29T01:06:56.632Z,10.60
2022-10-29T01:07:56.624Z,10.40
2022-10-29T01:08:56.616Z,10.50
2022-10-29T01:09:56.595Z,10.40
2022-10-29T01:10:56.618Z,11.00
2022-10-29T01:11:56.576Z,11.20
2022-10-29T01:12:56.970Z,10.80
2022-10-29T01:13:56.557Z,10.50
2022-10-29T01:14:56.554Z,10.80
2022-10-29T01:15:56.533Z,11.40
2022-10-29T01:16:56.538Z,10.80
2022-10-29T01:17:56.812Z,11.00
2022-10-29T01:18:56.592Z,10.70
2022-10-29T01:19:56.487Z,11.00
2022-10-29T01:20:56.477Z,11.50
2022-10-29T01:21:56.464Z,11.10
2022-10-29T01:22:56.462Z,10.80
2022-10-29T01:23:56.442Z,11.90
2022-10-29T01:24:56.434Z,11.40
2022-10-29T01:25:56.420Z,11.80
2022-10-29T01:26:56.432Z,11.40
2022-10-29T01:27:56.899Z,11.40
2022-10-29T01:28:56.389Z,11.40
2022-10-29T01:29:56.378Z,12.00
2022-10-29T01:30:56.366Z,11.00
2022-10-29T01:31:56.355Z,12.20
2022-10-29T01:32:56.781Z,11.10
2022-10-29T01:33:56.331Z,11.30
2022-10-29T01:34:56.328Z,10.60
2022-10-29T01:35:56.309Z,11.90
2022-10-29T01:36:56.304Z,10.50
2022-10-29T01:37:56.284Z,11.00
2022-10-29T01:38:56.280Z,10.70
2022-10-29T01:39:56.267Z,10.90
2022-10-29T01:40:56.266Z,10.90
2022-10-29T01:41:56.253Z,11.20
2022-10-29T01:42:56.637Z,11.00
2022-10-29T01:43:56.226Z,11.30
2022-10-29T01:44:56.220Z,11.00
2022-10-29T01:45:56.206Z,10.80
2022-10-29T01:46:56.193Z,10.80
2022-10-29T01:47:56.456Z,10.80
2022-10-29T01:48:56.168Z,11.00
2022-10-29T01:49:56.156Z,10.50
2022-10-29T01:50:56.149Z,10.30
2022-10-29T01:51:56.132Z,10.10
2022-10-29T01:52:56.124Z,11.10
2022-10-29T01:53:56.108Z,11.60
2022-10-29T01:54:56.104Z,11.00
2022-10-29T01:55:56.086Z,10.00
2022-10-29T01:56:56.078Z,11.10
2022-10-29T01:57:56.362Z,11.00
2022-10-29T01:58:56.074Z,12.20
2022-10-29T01:59:56.404Z,11.90
2022-10-29T02:00:56.085Z,11.20
2022-10-29T02:01:56.083Z,12.00
2022-10-29T02:02:56.403Z,10.90
2022-10-29T02:03:55.999Z,10.60
2022-10-29T02:04:55.987Z,10.60
2022-10-29T02:05:55.971Z,10.50
2022-10-29T02:06:55.963Z,12.20
2022-10-29T02:07:55.949Z,11.80
2022-10-29T02:08:55.944Z,11.90
2022-10-29T02:09:55.928Z,12.10
2022-10-29T02:10:55.919Z,13.20
2022-10-29T02:11:55.908Z,12.50
2022-10-29T02:12:56.383Z,12.00
2022-10-29T02:13:55.900Z,12.00
2022-10-29T02:14:55.914Z,12.90
2022-10-29T02:15:55.924Z,11.50
2022-10-29T02:16:55.930Z,12.60
2022-10-29T02:17:56.320Z,12.50
2022-10-29T02:18:55.970Z,11.60
2022-10-29T02:19:55.961Z,12.10
2022-10-29T02:20:55.804Z,13.50
2022-10-29T02:21:55.794Z,12.90
2022-10-29T02:22:55.781Z,13.30
2022-10-29T02:23:55.768Z,12.60
2022-10-29T02:24:55.762Z,12.80
2022-10-29T02:25:55.821Z,13.00
2022-10-29T02:26:55.736Z,11.60
2022-10-29T02:27:56.131Z,12.90
2022-10-29T02:28:55.717Z,13.40
2022-10-29T02:29:55.703Z,11.90
2022-10-29T02:30:55.719Z,12.60
2022-10-29T02:31:55.682Z,13.70
2022-10-29T02:32:55.918Z,13.40
2022-10-29T02:33:55.661Z,12.70
2022-10-29T02:34:55.649Z,13.50
2022-10-29T02:35:55.636Z,13.60
2022-10-29T02:36:55.627Z,14.30
2022-10-29T02:37:55.616Z,14.50
2022-10-29T02:38:55.613Z,13.50
2022-10-29T02:39:55.594Z,13.30
2022-10-29T02:40:55.584Z,12.40
2022-10-29T02:41:55.576Z,12.50
2022-10-29T02:42:55.905Z,12.70
2022-10-29T02:43:55.550Z,13.30
2022-10-29T02:44:55.539Z,12.70
2022-10-29T02:45:55.529Z,13.30
2022-10-29T02:46:55.544Z,13.30
2022-10-29T02:47:55.887Z,13.60
2022-10-29T02:48:55.497Z,12.30
2022-10-29T02:49:55.485Z,13.30
2022-10-29T02:50:55.475Z,12.00
2022-10-29T02:51:55.461Z,12.20
2022-10-29T02:52:55.453Z,14.20
2022-10-29T02:53:55.439Z,14.80
2022-10-29T02:54:55.432Z,13.50
2022-10-29T02:55:55.418Z,13.20
2022-10-29T02:56:55.409Z,13.00
2022-10-29T02:57:55.643Z,13.60
2022-10-29T02:58:55.392Z,13.20
2022-10-29T02:59:55.374Z,12.90
2022-10-29T03:00:55.368Z,11.80
2022-10-29T03:01:55.480Z,12.80
2022-10-29T03:02:55.835Z,12.50
2022-10-29T03:03:55.331Z,13.00
2022-10-29T03:04:55.319Z,13.20
2022-10-29T03:05:55.311Z,13.10
2022-10-29T03:06:55.301Z,12.20
2022-10-29T03:07:55.286Z,12.60
2022-10-29T03:08:55.277Z,11.40
2022-10-29T03:09:55.263Z,11.30
2022-10-29T03:10:55.252Z,11.50
2022-10-29T03:11:55.240Z,11.90
2022-10-29T03:12:55.617Z,11.40
2022-10-29T03:13:55.218Z,12.80
2022-10-29T03:14:55.209Z,13.00
2022-10-29T03:15:55.195Z,13.30
2022-10-29T03:16:55.185Z,14.10
2022-10-29T03:17:55.585Z,12.00
2022-10-29T03:18:55.194Z,14.00
2022-10-29T03:19:55.153Z,13.30
2022-10-29T03:20:55.139Z,12.90
2022-10-29T03:21:55.138Z,13.80
2022-10-29T03:22:55.117Z,11.20
2022-10-29T03:23:55.116Z,14.20
2022-10-29T03:24:55.098Z,16.40
2022-10-29T03:25:56.097Z,14.40
2022-10-29T03:26:55.074Z,15.60
2022-10-29T03:27:55.436Z,13.90
2022-10-29T03:28:55.053Z,14.70
2022-10-29T03:29:55.039Z,13.90
2022-10-29T03:30:55.055Z,11.10
2022-10-29T03:31:55.016Z,12.70
2022-10-29T03:32:55.434Z,14.60
2022-10-29T03:33:54.997Z,11.30
2022-10-29T03:34:57.567Z,13.40
2022-10-29T03:35:55.054Z,11.60
2022-10-29T03:36:54.959Z,10.80
2022-10-29T03:37:54.946Z,11.10
2022-10-29T03:38:54.951Z,11.00
2022-10-29T03:39:54.929Z,10.50
2022-10-29T03:40:54.914Z,10.50
2022-10-29T03:41:54.900Z,8.90
2022-10-29T03:42:55.210Z,9.80
2022-10-29T03:44:54.870Z,10.60
2022-10-29T03:45:54.856Z,9.80
2022-10-29T03:46:54.853Z,10.80
2022-10-29T03:47:55.198Z,9.50
2022-10-29T03:48:54.825Z,10.10
2022-10-29T03:49:54.812Z,13.10
2022-10-29T03:50:54.825Z,12.10
2022-10-29T03:51:54.787Z,12.00
2022-10-29T03:52:54.779Z,12.80
2022-10-29T03:53:54.767Z,10.30
2022-10-29T03:54:54.757Z,10.80
2022-10-29T03:55:54.744Z,11.20
2022-10-29T03:56:54.734Z,9.80
2022-10-29T03:57:55.042Z,8.00
2022-10-29T03:58:54.718Z,10.90
2022-10-29T03:59:54.708Z,18.60
2022-10-29T04:00:54.689Z,15.90
2022-10-29T04:01:54.843Z,15.20
2022-10-29T04:02:55.180Z,17.80
2022-10-29T04:03:54.656Z,17.00
2022-10-29T04:04:54.644Z,16.80
2022-10-29T04:05:54.632Z,15.70
2022-10-29T04:06:54.649Z,13.00
2022-10-29T04:07:54.613Z,15.20
2022-10-29T04:08:54.597Z,17.00
2022-10-29T04:09:54.588Z,15.00
2022-10-29T04:10:54.577Z,13.70
2022-10-29T04:11:54.566Z,14.10
2022-10-29T04:12:54.979Z,11.60
2022-10-29T04:13:54.543Z,10.40
2022-10-29T04:14:54.533Z,10.60
2022-10-29T04:15:54.522Z,11.00
2022-10-29T04:16:54.507Z,11.20
2022-10-29T04:17:54.989Z,11.40
2022-10-29T04:18:54.487Z,11.10
2022-10-29T04:19:54.476Z,14.00
2022-10-29T04:26:42.058Z,13.90
2022-10-29T04:28:54.372Z,14.20
2022-10-29T04:29:54.367Z,15.40
2022-10-29T04:30:54.356Z,15.90
2022-10-29T04:31:54.341Z,14.40
2022-10-29T04:32:54.688Z,13.20
2022-10-29T04:33:54.315Z,14.00
2022-10-29T04:34:54.306Z,15.00
2022-10-29T04:35:54.295Z,14.70
2022-10-29T04:36:54.282Z,13.70
2022-10-29T04:37:54.271Z,11.70
2022-10-29T04:38:54.282Z,11.20
2022-10-29T04:39:54.248Z,11.50
2022-10-29T04:40:54.237Z,14.10
2022-10-29T04:41:54.227Z,12.30
2022-10-29T04:42:54.516Z,10.50
2022-10-29T04:43:54.203Z,13.10
2022-10-29T04:44:54.190Z,14.20
2022-10-29T04:45:54.190Z,13.90
2022-10-29T04:46:54.173Z,14.10
2022-10-29T04:47:54.621Z,13.10
2022-10-29T04:48:54.198Z,12.20
2022-10-29T04:49:54.135Z,9.80
2022-10-29T04:50:54.124Z,10.90
2022-10-29T04:51:54.112Z,10.10
2022-10-29T04:52:54.100Z,12.30
2022-10-29T04:53:54.092Z,11.90
2022-10-29T04:54:54.103Z,11.50
2022-10-29T04:55:54.068Z,13.10
2022-10-29T04:56:54.054Z,10.90
2022-10-29T04:57:54.425Z,10.50
2022-10-29T04:58:54.182Z,9.60
2022-10-29T04:59:54.024Z,12.90
2022-10-29T05:00:54.116Z,16.70
2022-10-29T05:01:53.999Z,15.90
2022-10-29T05:02:54.278Z,14.90
2022-10-29T05:03:57.147Z,11.90
2022-10-29T05:04:53.964Z,11.80
2022-10-29T05:05:53.955Z,12.70
2022-10-29T05:07:21.437Z,15.10
2022-10-29T05:08:21.424Z,14.60
2022-10-29T05:09:21.461Z,11.50
2022-10-29T05:10:21.427Z,12.10
2022-10-29T05:11:21.395Z,34.00
2022-10-29T05:12:21.377Z,29.70
2022-10-29T05:13:21.369Z,15.70
2022-10-29T05:14:21.358Z,20.20
2022-10-29T05:15:21.346Z,15.10
2022-10-29T05:16:21.332Z,14.10
2022-10-29T05:17:21.323Z,13.00
2022-10-29T05:18:21.334Z,12.60
2022-10-29T05:19:21.299Z,11.00
2022-10-29T05:20:21.289Z,9.70
2022-10-29T05:21:21.279Z,12.30
2022-10-29T05:22:21.266Z,11.30
2022-10-29T05:23:21.259Z,12.70
2022-10-29T05:24:21.245Z,12.40
2022-10-29T05:25:21.234Z,12.80
2022-10-29T05:26:21.245Z,14.90
2022-10-29T05:27:21.211Z,11.70
2022-10-29T05:28:21.218Z,12.80
2022-10-29T05:29:21.190Z,11.60
2022-10-29T05:30:21.176Z,10.30
2022-10-29T05:31:21.168Z,11.40
2022-10-29T05:32:21.153Z,12.70
2022-10-29T05:33:21.147Z,13.40
2022-10-29T05:34:21.133Z,12.50
2022-10-29T05:35:21.126Z,12.60
2022-10-29T05:36:21.110Z,15.90
2022-10-29T05:37:21.100Z,11.70
2022-10-29T05:38:21.087Z,11.50
2022-10-29T05:39:21.077Z,10.20
2022-10-29T05:40:21.067Z,11.20
2022-10-29T05:41:21.059Z,10.50
2022-10-29T05:42:21.071Z,10.20
2022-10-29T05:43:21.040Z,11.00
2022-10-29T05:44:21.021Z,12.20
2022-10-29T05:45:21.015Z,12.10
2022-10-29T05:46:20.998Z,12.40
2022-10-29T05:47:20.991Z,12.20
2022-10-29T05:48:20.975Z,11.80
2022-10-29T05:49:20.968Z,12.00
2022-10-29T05:50:20.955Z,12.10
2022-10-29T05:51:20.945Z,13.40
2022-10-29T05:52:20.939Z,15.60
2022-10-29T05:53:20.922Z,13.70
2022-10-29T05:54:20.909Z,11.70
2022-10-29T05:55:20.900Z,12.40
2022-10-29T05:56:20.888Z,12.80
2022-10-29T05:57:20.877Z,10.30
2022-10-29T05:58:20.886Z,12.90
2022-10-29T05:59:20.860Z,15.80
2022-10-29T06:00:20.842Z,15.30
2022-10-29T06:01:20.929Z,16.20
2022-10-29T06:02:20.987Z,14.20
2022-10-29T06:03:20.813Z,14.40
2022-10-29T06:04:20.798Z,13.70
2022-10-29T06:05:20.793Z,15.10
2022-10-29T06:06:20.845Z,13.70
2022-10-29T06:07:20.776Z,16.00
2022-10-29T06:08:20.756Z,13.90
2022-10-29T06:09:20.744Z,15.40
2022-10-29T06:10:20.727Z,15.50
2022-10-29T06:11:21.069Z,15.40
2022-10-29T06:12:20.707Z,16.70
2022-10-29T06:13:20.702Z,16.70
2022-10-29T06:14:20.710Z,16.80
2022-10-29T06:15:20.675Z,15.10
2022-10-29T06:16:20.663Z,21.10
2022-10-29T06:17:20.652Z,14.80
2022-10-29T06:18:20.642Z,15.50
2022-10-29T06:19:20.633Z,13.00
2022-10-29T06:20:20.627Z,13.70
2022-10-29T06:21:20.611Z,14.90
2022-10-29T06:22:20.599Z,14.80
2022-10-29T06:23:20.587Z,13.70
2022-10-29T06:24:20.574Z,13.40
2022-10-29T06:25:20.562Z,15.10
2022-10-29T06:26:20.549Z,17.50
2022-10-29T06:27:20.540Z,18.20
2022-10-29T06:28:20.528Z,20.10
2022-10-29T06:29:20.529Z,23.30
2022-10-29T06:30:20.530Z,17.70
2022-10-29T06:31:20.498Z,17.60
2022-10-29T06:32:20.482Z,18.60
2022-10-29T06:33:20.472Z,16.50
2022-10-29T06:34:20.460Z,15.80
2022-10-29T06:35:20.529Z,15.70
2022-10-29T06:36:20.440Z,15.40
2022-10-29T06:37:20.430Z,16.70
2022-10-29T06:38:20.416Z,15.60
2022-10-29T06:39:20.415Z,15.40
2022-10-29T06:40:20.395Z,14.30
2022-10-29T06:41:20.385Z,16.80
2022-10-29T06:42:20.372Z,16.80
2022-10-29T06:43:20.359Z,16.90
2022-10-29T06:44:20.348Z,17.90
2022-10-29T06:45:20.339Z,18.50
2022-10-29T06:46:20.349Z,18.30
2022-10-29T06:47:20.319Z,15.10
2022-10-29T06:48:22.308Z,18.70
2022-10-29T06:49:20.292Z,18.60
2022-10-29T06:50:20.284Z,15.70
2022-10-29T06:51:20.309Z,16.60
2022-10-29T06:52:20.258Z,15.20
2022-10-29T06:53:20.248Z,15.30
2022-10-29T06:54:20.235Z,16.00
2022-10-29T06:55:20.226Z,14.50
2022-10-29T06:56:20.214Z,15.50
2022-10-29T06:57:20.204Z,15.40
2022-10-29T06:58:20.192Z,14.60
2022-10-29T06:59:20.184Z,15.10
2022-10-29T07:00:20.173Z,18.60
2022-10-29T07:01:20.198Z,17.30
2022-10-29T07:02:20.173Z,17.60
2022-10-29T07:03:20.139Z,15.80
2022-10-29T07:04:20.127Z,19.40
2022-10-29T07:05:20.130Z,19.20
2022-10-29T07:06:20.104Z,18.60
2022-10-29T07:07:20.180Z,19.80
2022-10-29T07:08:20.083Z,25.80
2022-10-29T07:09:20.070Z,19.80
2022-10-29T07:10:20.063Z,19.90
2022-10-29T07:11:20.048Z,17.90
2022-10-29T07:12:20.046Z,20.10
2022-10-29T07:13:20.031Z,18.60
2022-10-29T07:14:20.016Z,19.60
2022-10-29T07:15:23.003Z,19.20
2022-10-29T07:16:20.258Z,25.10
2022-10-29T07:17:19.987Z,34.70
2022-10-29T07:18:19.995Z,28.90
2022-10-29T07:19:19.961Z,31.80
2022-10-29T07:20:19.951Z,26.40
2022-10-29T07:21:19.943Z,23.60
2022-10-29T07:22:19.930Z,31.80
2022-10-29T07:23:20.061Z,27.20
2022-10-29T07:24:19.907Z,26.50
2022-10-29T07:25:19.894Z,33.90
2022-10-29T07:26:19.884Z,27.00
2022-10-29T07:27:19.902Z,26.90
2022-10-29T07:28:19.863Z,25.60
2022-10-29T07:29:19.848Z,23.60
2022-10-29T07:30:19.837Z,23.60
2022-10-29T07:31:19.826Z,27.90
2022-10-29T07:32:19.819Z,49.60
2022-10-29T07:33:19.809Z,26.90
2022-10-29T07:34:19.823Z,39.40
2022-10-29T07:35:19.786Z,49.00
2022-10-29T07:36:19.780Z,27.00
2022-10-29T07:37:19.760Z,33.90
2022-10-29T07:38:19.755Z,26.50
2022-10-29T07:39:19.810Z,26.70
2022-10-29T07:40:19.727Z,28.20
2022-10-29T07:41:19.716Z,28.50
2022-10-29T07:42:19.706Z,27.80
2022-10-29T07:43:19.703Z,26.60
2022-10-29T07:44:19.687Z,27.90
2022-10-29T07:45:19.705Z,35.30
2022-10-29T07:46:19.673Z,30.40
2022-10-29T07:47:19.650Z,31.10
2022-10-29T07:48:19.644Z,27.40
2022-10-29T07:49:19.628Z,29.10
2022-10-29T07:50:19.645Z,27.10
2022-10-29T07:51:19.606Z,23.50
2022-10-29T07:52:19.615Z,23.40
2022-10-29T07:53:19.588Z,23.80
2022-10-29T07:54:19.576Z,25.80
2022-10-29T07:55:19.613Z,25.00
2022-10-29T07:56:19.579Z,24.70
2022-10-29T07:57:19.554Z,23.90
2022-10-29T07:58:19.531Z,23.80
2022-10-29T07:59:19.529Z,23.90
2022-10-29T08:00:19.559Z,24.00
2022-10-29T08:01:19.628Z,24.40
2022-10-29T08:02:19.613Z,23.60
2022-10-29T08:03:19.476Z,24.00
2022-10-29T08:04:19.464Z,23.00
2022-10-29T08:05:19.451Z,22.50
2022-10-29T08:06:19.490Z,22.20
2022-10-29T08:07:19.612Z,22.30
2022-10-29T08:08:19.583Z,22.90
2022-10-29T08:09:19.520Z,21.10
2022-10-29T08:10:19.515Z,21.90
2022-10-29T08:11:19.488Z,22.50
2022-10-29T08:12:19.411Z,20.30
2022-10-29T08:13:19.388Z,21.80
2022-10-29T08:14:22.597Z,24.70
2022-10-29T08:15:19.347Z,22.30
2022-10-29T08:16:19.339Z,21.40
2022-10-29T08:17:19.325Z,21.50
2022-10-29T08:18:19.318Z,20.90
2022-10-29T08:19:19.299Z,22.70
2022-10-29T08:20:19.303Z,21.70
2022-10-29T08:21:19.278Z,25.20
2022-10-29T08:22:19.293Z,22.00
2022-10-29T08:23:19.273Z,21.50
2022-10-29T08:24:19.546Z,19.90
2022-10-29T08:25:19.239Z,19.80
2022-10-29T08:26:19.229Z,20.90
2022-10-29T08:27:19.212Z,18.50
2022-10-29T08:28:20.870Z,19.50
2022-10-29T08:29:19.192Z,18.60
2022-10-29T08:30:19.182Z,18.50
2022-10-29T08:31:19.370Z,17.70
2022-10-29T08:32:19.240Z,17.10
2022-10-29T08:33:19.147Z,16.40
2022-10-29T08:34:19.137Z,16.40
2022-10-29T08:35:19.126Z,17.40
2022-10-29T08:36:19.115Z,17.00
2022-10-29T08:37:19.106Z,15.60
2022-10-29T08:38:19.465Z,15.30
2022-10-29T08:39:19.083Z,15.00
2022-10-29T08:40:19.076Z,15.90
2022-10-29T08:41:19.063Z,14.40
2022-10-29T08:42:19.065Z,14.50
2022-10-29T08:43:19.046Z,14.80
2022-10-29T08:44:19.029Z,14.30
2022-10-29T08:45:19.015Z,17.40
2022-10-29T08:46:19.007Z,22.00
2022-10-29T08:47:18.994Z,23.60
2022-10-29T08:48:18.984Z,27.80
2022-10-29T08:49:18.970Z,21.00
2022-10-29T08:50:18.962Z,20.40
2022-10-29T08:51:18.952Z,17.50
2022-10-29T08:52:18.944Z,17.90
2022-10-29T08:53:23.273Z,18.30
2022-10-29T08:54:31.111Z,20.50
2022-10-29T08:55:19.934Z,20.30
2022-10-29T08:56:18.897Z,20.10
2022-10-29T08:57:18.887Z,19.30
2022-10-29T08:58:18.876Z,18.50
2022-10-29T08:59:18.863Z,16.50
2022-10-29T09:00:18.857Z,17.00
2022-10-29T09:01:18.915Z,16.40
2022-10-29T09:02:18.892Z,15.50
2022-10-29T09:03:18.844Z,15.20
2022-10-29T09:04:18.808Z,15.60
2022-10-29T09:05:18.805Z,15.10
2022-10-29T09:06:18.787Z,15.30
2022-10-29T09:07:18.775Z,13.90
2022-10-29T09:08:18.765Z,14.80
2022-10-29T09:09:18.751Z,14.70
2022-10-29T09:10:18.762Z,14.70
2022-10-29T09:11:18.730Z,15.00
2022-10-29T09:12:18.726Z,14.30
2022-10-29T09:13:18.706Z,15.70
2022-10-29T09:14:18.712Z,15.00
2022-10-29T09:15:18.689Z,15.60
2022-10-29T09:16:18.678Z,14.40
2022-10-29T09:17:18.664Z,14.70
2022-10-29T09:18:18.654Z,14.20
2022-10-29T09:19:18.639Z,13.50
2022-10-29T09:20:18.637Z,13.80
2022-10-29T09:21:18.620Z,13.20
2022-10-29T09:22:18.609Z,13.60
2022-10-29T09:23:18.607Z,13.20
2022-10-29T09:24:18.617Z,13.20
2022-10-29T09:25:18.578Z,13.50
2022-10-29T09:26:18.591Z,13.70
2022-10-29T09:27:18.558Z,13.40
2022-10-29T09:28:18.544Z,14.00
2022-10-29T09:29:18.534Z,13.50
2022-10-29T09:30:18.522Z,12.80
2022-10-29T09:31:18.510Z,13.30
2022-10-29T09:32:18.505Z,13.30
2022-10-29T09:33:18.490Z,13.90
2022-10-29T09:34:18.480Z,13.30
2022-10-29T09:35:18.480Z,14.00
2022-10-29T09:36:18.461Z,14.00
2022-10-29T09:37:18.443Z,14.20
2022-10-29T09:38:18.433Z,14.10
2022-10-29T09:39:21.932Z,13.70
2022-10-29T09:40:18.417Z,13.70
2022-10-29T09:41:18.398Z,14.20
2022-10-29T09:42:18.410Z,13.30
2022-10-29T09:43:18.378Z,12.90
2022-10-29T09:44:18.367Z,13.10
2022-10-29T09:45:18.450Z,13.20
2022-10-29T09:46:18.357Z,12.60
2022-10-29T09:47:18.338Z,13.40
2022-10-29T09:48:18.325Z,12.70
2022-10-29T09:49:18.312Z,12.70
2022-10-29T09:50:18.303Z,13.50
2022-10-29T09:51:18.290Z,13.40
2022-10-29T09:52:18.281Z,13.50
2022-10-29T09:53:18.272Z,13.30
2022-10-29T09:54:18.259Z,13.70
2022-10-29T09:55:18.273Z,13.30
2022-10-29T09:56:18.269Z,13.20
2022-10-29T09:57:18.228Z,13.30
2022-10-29T09:58:18.238Z,12.90
2022-10-29T09:59:18.200Z,12.90
2022-10-29T10:00:18.190Z,12.80
2022-10-29T10:01:18.265Z,13.30
2022-10-29T10:02:18.241Z,12.60
2022-10-29T10:03:18.240Z,12.60
2022-10-29T10:04:18.147Z,12.70
2022-10-29T10:05:18.137Z,13.10
2022-10-29T10:06:18.295Z,13.40
2022-10-29T10:07:18.137Z,12.50
2022-10-29T10:08:18.104Z,13.00
2022-10-29T10:09:18.119Z,13.40
2022-10-29T10:10:18.166Z,13.50
2022-10-29T10:11:18.073Z,13.60
2022-10-29T10:12:18.061Z,13.00
2022-10-29T10:13:18.981Z,13.30
2022-10-29T10:14:18.075Z,13.30
2022-10-29T10:15:18.023Z,13.20
2022-10-29T10:16:18.060Z,12.80
2022-10-29T10:17:18.216Z,13.30
2022-10-29T10:18:18.007Z,13.20
2022-10-29T10:19:17.982Z,13.40
2022-10-29T10:20:18.019Z,13.60
2022-10-29T10:21:17.961Z,12.40
2022-10-29T10:22:17.955Z,12.80
2022-10-29T10:23:17.984Z,12.90
2022-10-29T10:24:17.929Z,12.40
2022-10-29T10:25:18.014Z,12.50
2022-10-29T10:26:17.941Z,12.50
2022-10-29T10:27:18.009Z,12.00
2022-10-29T10:28:18.099Z,12.70
2022-10-29T10:29:18.177Z,12.90
2022-10-29T10:30:17.929Z,12.90
2022-10-29T10:31:17.886Z,12.10
2022-10-29T10:32:17.843Z,12.70
2022-10-29T10:33:17.880Z,12.10
2022-10-29T10:34:17.822Z,11.90
2022-10-29T10:35:17.809Z,12.40
2022-10-29T10:36:17.800Z,11.70
2022-10-29T10:37:17.832Z,12.40
2022-10-29T10:38:18.058Z,13.10
2022-10-29T10:39:17.769Z,12.30
2022-10-29T10:40:17.757Z,12.20
2022-10-29T10:41:17.743Z,11.90
2022-10-29T10:42:17.735Z,11.80
2022-10-29T10:43:17.723Z,13.10
2022-10-29T10:44:17.716Z,12.00
2022-10-29T10:45:17.706Z,11.70
2022-10-29T10:46:17.717Z,12.90
2022-10-29T10:47:17.768Z,11.50
2022-10-29T10:48:18.091Z,11.60
2022-10-29T10:49:17.984Z,11.40
2022-10-29T10:50:17.672Z,11.60
2022-10-29T10:51:17.642Z,11.20
2022-10-29T10:52:17.625Z,12.30
2022-10-29T10:53:17.676Z,12.10
2022-10-29T10:54:17.799Z,11.90
2022-10-29T10:55:17.798Z,11.80
2022-10-29T10:56:17.723Z,11.50
2022-10-29T10:57:17.749Z,11.50
2022-10-29T10:58:17.649Z,14.40
2022-10-29T10:59:17.587Z,12.80
2022-10-29T11:00:17.582Z,12.20
2022-10-29T11:01:17.690Z,11.80
2022-10-29T11:02:17.714Z,11.80
2022-10-29T11:03:17.868Z,11.70
2022-10-29T11:04:17.504Z,11.20
2022-10-29T11:05:17.792Z,11.50
2022-10-29T11:06:17.482Z,11.70
2022-10-29T11:07:17.471Z,11.80
2022-10-29T11:08:17.488Z,12.20
2022-10-29T11:09:17.455Z,12.20
2022-10-29T11:10:17.444Z,11.80
2022-10-29T11:11:17.422Z,12.90
2022-10-29T11:12:17.413Z,11.40
2022-10-29T11:13:17.395Z,12.00
2022-10-29T11:14:17.408Z,11.90
2022-10-29T11:15:17.375Z,12.40
2022-10-29T11:16:17.368Z,12.80
2022-10-29T11:17:17.352Z,11.70
2022-10-29T11:19:17.331Z,11.50
2022-10-29T11:20:17.508Z,11.30
2022-10-29T11:21:17.310Z,11.40
2022-10-29T11:22:17.297Z,12.10
2022-10-29T11:23:17.288Z,12.00
2022-10-29T11:24:17.276Z,12.00
2022-10-29T11:25:17.363Z,10.70
2022-10-29T11:26:17.259Z,17.00
2022-10-29T11:27:17.246Z,13.80
2022-10-29T11:28:17.230Z,11.40
2022-10-29T11:29:17.224Z,11.30
2022-10-29T11:30:17.222Z,11.40
2022-10-29T11:31:17.217Z,11.30
2022-10-29T11:32:17.188Z,11.00
2022-10-29T11:33:17.221Z,10.80
2022-10-29T11:34:17.200Z,10.80
2022-10-29T11:35:17.463Z,10.60
2022-10-29T11:36:17.150Z,10.80
2022-10-29T11:37:17.139Z,10.90
2022-10-29T11:38:17.124Z,10.70
2022-10-29T11:39:17.119Z,11.60
2022-10-29T11:40:17.107Z,11.40
2022-10-29T11:41:17.097Z,11.00
2022-10-29T11:42:17.143Z,11.00
2022-10-29T11:43:17.073Z,10.90
2022-10-29T11:44:17.060Z,11.70
2022-10-29T11:45:17.055Z,11.00
2022-10-29T11:46:17.037Z,11.10
2022-10-29T11:47:17.075Z,11.40
2022-10-29T11:48:21.473Z,11.60
2022-10-29T11:49:17.012Z,11.00
2022-10-29T11:50:17.018Z,11.30
2022-10-29T11:51:16.991Z,11.70
2022-10-29T11:52:16.971Z,11.30
2022-10-29T11:53:16.967Z,12.10
2022-10-29T11:54:16.952Z,11.40
2022-10-29T11:55:16.982Z,11.40
2022-10-29T11:56:16.933Z,11.40
2022-10-29T11:57:16.922Z,10.90
2022-10-29T11:58:16.910Z,10.80
2022-10-29T11:59:16.905Z,11.00
2022-10-29T12:00:16.888Z,11.20
2022-10-29T12:01:16.938Z,10.50
2022-10-29T12:02:16.872Z,10.60
2022-10-29T12:03:16.927Z,10.70
2022-10-29T12:04:19.589Z,11.40
2022-10-29T12:05:17.864Z,11.20
2022-10-29T12:06:16.894Z,10.40
2022-10-29T12:07:16.851Z,10.90
2022-10-29T12:08:16.818Z,10.00
2022-10-29T12:09:16.790Z,11.00
2022-10-29T12:10:16.784Z,10.60
2022-10-29T12:11:16.770Z,10.00
2022-10-29T12:12:16.759Z,9.90
2022-10-29T12:13:16.747Z,10.30
2022-10-29T12:14:16.850Z,9.80
2022-10-29T12:15:16.724Z,10.10
2022-10-29T12:16:16.713Z,10.40
2022-10-29T12:17:16.704Z,10.50
2022-10-29T12:18:16.810Z,10.00
2022-10-29T12:19:16.701Z,9.90
2022-10-29T12:20:16.670Z,10.00
2022-10-29T12:21:16.666Z,9.40
2022-10-29T12:22:16.674Z,9.80
2022-10-29T12:23:16.841Z,9.40
2022-10-29T12:24:16.631Z,9.20
2022-10-29T12:25:16.621Z,9.50
2022-10-29T12:26:16.652Z,9.90
2022-10-29T12:27:16.594Z,9.70
2022-10-29T12:28:16.583Z,10.00
2022-10-29T12:29:16.583Z,9.40
2022-10-29T12:30:16.718Z,9.60
2022-10-29T12:31:16.595Z,10.10
2022-10-29T12:32:16.542Z,9.30
2022-10-29T12:33:16.541Z,9.10
2022-10-29T12:34:16.517Z,9.10
2022-10-29T12:35:16.514Z,8.70
2022-10-29T12:36:16.500Z,9.10
2022-10-29T12:37:17.182Z,8.70
2022-10-29T12:38:16.498Z,8.70
2022-10-29T12:39:16.464Z,8.80
2022-10-29T12:40:16.454Z,8.80
2022-10-29T12:41:16.461Z,8.90
2022-10-29T12:42:16.487Z,8.70
2022-10-29T12:43:16.423Z,8.60
2022-10-29T12:44:16.412Z,7.90
2022-10-29T12:45:16.402Z,8.40
2022-10-29T12:46:20.829Z,8.40
2022-10-29T12:47:16.379Z,8.90
2022-10-29T12:48:16.369Z,8.30
2022-10-29T12:49:16.354Z,8.20
2022-10-29T12:50:16.355Z,9.10
2022-10-29T12:51:16.961Z,8.90
2022-10-29T12:52:16.332Z,9.80
2022-10-29T12:53:16.401Z,9.80
2022-10-29T12:54:16.389Z,9.50
2022-10-29T12:55:16.294Z,9.70
2022-10-29T12:56:16.646Z,9.70
2022-10-29T12:57:16.271Z,9.00
2022-10-29T12:58:16.262Z,9.10
2022-10-29T12:59:16.250Z,8.70
2022-10-29T13:00:16.242Z,9.50
2022-10-29T13:01:16.392Z,8.40
2022-10-29T13:02:16.329Z,9.30
2022-10-29T13:03:16.326Z,10.20
2022-10-29T13:04:16.242Z,10.00